sensor_id;sensor_type;location;lat;lon;timestamp;temperature;humidity
20728;DHT22;10525;50.154;8.198;2022-08-25T00:01:20;19.20;99.90
20728;DHT22;10525;50.154;8.198;2022-08-25T00:03:48;19.20;99.90
20728;DHT22;10525;50.154;8.198;2022-08-25T00:06:17;19.10;99.90
20728;DHT22;10525;50.154;8.198;2022-08-25T00:08:43;18.90;99.90
20728;DHT22;10525;50.154;8.198;2022-08-25T00:11:13;18.80;99.90
20728;DHT22;10525;50.154;8.198;2022-08-25T00:13:42;18.80;99.90
20728;DHT22;10525;50.154;8.198;2022-08-25T00:16:09;18.80;99.90
20728;DHT22;10525;50.154;8.198;2022-08-25T00:18:36;18.70;99.90
20728;DHT22;10525;50.154;8.198;2022-08-25T00:21:05;18.80;99.90
20728;DHT22;10525;50.154;8.198;2022-08-25T00:23:33;19.00;99.90
20728;DHT22;10525;50.154;8.198;2022-08-25T00:26:01;19.00;99.90
20728;DHT22;10525;50.154;8.198;2022-08-25T00:28:29;19.30;99.90
20728;DHT22;10525;50.154;8.198;2022-08-25T00:30:55;19.30;99.90
20728;DHT22;10525;50.154;8.198;2022-08-25T00:33:23;19.40;99.90
20728;DHT22;10525;50.154;8.198;2022-08-25T00:35:50;19.50;99.90
20728;DHT22;10525;50.154;8.198;2022-08-25T00:38:19;19.70;99.90
20728;DHT22;10525;50.154;8.198;2022-08-25T00:40:46;19.70;99.90
20728;DHT22;10525;50.154;8.198;2022-08-25T00:43:34;19.70;99.90
20728;DHT22;10525;50.154;8.198;2022-08-25T00:46:03;19.80;99.90
20728;DHT22;10525;50.154;8.198;2022-08-25T00:48:29;19.80;99.90
20728;DHT22;10525;50.154;8.198;2022-08-25T00:50:56;19.80;99.90
20728;DHT22;10525;50.154;8.198;2022-08-25T00:53:24;19.70;99.90
20728;DHT22;10525;50.154;8.198;2022-08-25T00:55:51;19.70;99.90
20728;DHT22;10525;50.154;8.198;2022-08-25T00:58:20;19.60;99.90
20728;DHT22;10525;50.154;8.198;2022-08-25T01:00:52;19.60;99.90
20728;DHT22;10525;50.154;8.198;2022-08-25T01:03:21;19.60;99.90
20728;DHT22;10525;50.154;8.198;2022-08-25T01:05:48;19.60;99.90
20728;DHT22;10525;50.154;8.198;2022-08-25T01:08:16;19.70;99.90
20728;DHT22;10525;50.154;8.198;2022-08-25T01:10:49;19.60;99.90
20728;DHT22;10525;50.154;8.198;2022-08-25T01:13:19;19.60;99.90
20728;DHT22;10525;50.154;8.198;2022-08-25T01:15:47;19.50;99.90
20728;DHT22;10525;50.154;8.198;2022-08-25T01:18:14;19.30;99.90
20728;DHT22;10525;50.154;8.198;2022-08-25T01:20:41;19.10;99.90
20728;DHT22;10525;50.154;8.198;2022-08-25T01:23:09;18.90;99.90
20728;DHT22;10525;50.154;8.198;2022-08-25T01:25:44;18.80;99.90
20728;DHT22;10525;50.154;8.198;2022-08-25T01:28:13;18.70;99.90
20728;DHT22;10525;50.154;8.198;2022-08-25T01:30:40;18.60;99.90
20728;DHT22;10525;50.154;8.198;2022-08-25T01:33:09;18.50;99.90
20728;DHT22;10525;50.154;8.198;2022-08-25T01:35:36;18.40;99.90
20728;DHT22;10525;50.154;8.198;2022-08-25T01:38:05;18.30;99.90
20728;DHT22;10525;50.154;8.198;2022-08-25T01:40:33;18.20;99.90
20728;DHT22;10525;50.154;8.198;2022-08-25T01:43:06;18.10;99.90
20728;DHT22;10525;50.154;8.198;2022-08-25T01:45:39;17.90;99.90
20728;DHT22;10525;50.154;8.198;2022-08-25T01:48:07;17.80;99.90
20728;DHT22;10525;50.154;8.198;2022-08-25T01:50:34;17.70;99.90
20728;DHT22;10525;50.154;8.198;2022-08-25T01:53:06;17.60;99.90
20728;DHT22;10525;50.154;8.198;2022-08-25T01:55:36;17.60;99.90
20728;DHT22;10525;50.154;8.198;2022-08-25T01:58:17;17.50;99.90
20728;DHT22;10525;50.154;8.198;2022-08-25T02:00:45;17.40;99.90
20728;DHT22;10525;50.154;8.198;2022-08-25T02:03:12;17.30;99.90
20728;DHT22;10525;50.154;8.198;2022-08-25T02:05:38;17.30;99.90
20728;DHT22;10525;50.154;8.198;2022-08-25T02:08:05;17.20;99.90
20728;DHT22;10525;50.154;8.198;2022-08-25T02:10:32;17.10;99.90
20728;DHT22;10525;50.154;8.198;2022-08-25T02:13:00;17.20;99.90
20728;DHT22;10525;50.154;8.198;2022-08-25T02:15:27;17.10;99.90
20728;DHT22;10525;50.154;8.198;2022-08-25T02:17:54;17.10;99.90
20728;DHT22;10525;50.154;8.198;2022-08-25T02:20:22;17.10;99.90
20728;DHT22;10525;50.154;8.198;2022-08-25T02:22:49;17.00;99.90
20728;DHT22;10525;50.154;8.198;2022-08-25T02:25:16;17.00;99.90
20728;DHT22;10525;50.154;8.198;2022-08-25T02:27:43;17.10;99.90
20728;DHT22;10525;50.154;8.198;2022-08-25T02:30:13;17.00;99.90
20728;DHT22;10525;50.154;8.198;2022-08-25T02:32:40;17.10;99.90
20728;DHT22;10525;50.154;8.198;2022-08-25T02:35:07;17.30;99.90
20728;DHT22;10525;50.154;8.198;2022-08-25T02:37:35;17.40;99.90
20728;DHT22;10525;50.154;8.198;2022-08-25T02:40:03;17.40;99.90
20728;DHT22;10525;50.154;8.198;2022-08-25T02:42:30;17.40;99.90
20728;DHT22;10525;50.154;8.198;2022-08-25T02:44:56;17.40;99.90
20728;DHT22;10525;50.154;8.198;2022-08-25T02:47:24;17.40;99.90
20728;DHT22;10525;50.154;8.198;2022-08-25T02:49:51;17.40;99.90
20728;DHT22;10525;50.154;8.198;2022-08-25T02:52:18;17.40;99.90
20728;DHT22;10525;50.154;8.198;2022-08-25T02:54:44;17.40;99.90
20728;DHT22;10525;50.154;8.198;2022-08-25T02:57:11;17.40;99.90
20728;DHT22;10525;50.154;8.198;2022-08-25T02:59:39;17.30;99.90
20728;DHT22;10525;50.154;8.198;2022-08-25T03:02:06;17.30;99.90
20728;DHT22;10525;50.154;8.198;2022-08-25T03:04:34;17.20;99.90
20728;DHT22;10525;50.154;8.198;2022-08-25T03:07:00;17.20;99.90
20728;DHT22;10525;50.154;8.198;2022-08-25T03:09:28;17.20;99.90
20728;DHT22;10525;50.154;8.198;2022-08-25T03:11:54;17.10;99.90
20728;DHT22;10525;50.154;8.198;2022-08-25T03:14:21;17.20;99.90
20728;DHT22;10525;50.154;8.198;2022-08-25T03:16:48;17.10;99.90
20728;DHT22;10525;50.154;8.198;2022-08-25T03:19:15;17.10;99.90
20728;DHT22;10525;50.154;8.198;2022-08-25T03:21:44;17.10;99.90
20728;DHT22;10525;50.154;8.198;2022-08-25T03:24:11;17.10;99.90
20728;DHT22;10525;50.154;8.198;2022-08-25T03:26:38;17.10;99.90
20728;DHT22;10525;50.154;8.198;2022-08-25T03:29:21;17.10;99.90
20728;DHT22;10525;50.154;8.198;2022-08-25T03:31:48;17.10;99.90
20728;DHT22;10525;50.154;8.198;2022-08-25T03:34:15;17.20;99.90
20728;DHT22;10525;50.154;8.198;2022-08-25T03:36:47;17.10;99.90
20728;DHT22;10525;50.154;8.198;2022-08-25T03:39:16;17.10;99.90
20728;DHT22;10525;50.154;8.198;2022-08-25T03:41:43;17.10;99.90
20728;DHT22;10525;50.154;8.198;2022-08-25T03:44:10;17.10;99.90
20728;DHT22;10525;50.154;8.198;2022-08-25T03:46:41;17.00;99.90
20728;DHT22;10525;50.154;8.198;2022-08-25T03:49:10;16.80;99.90
20728;DHT22;10525;50.154;8.198;2022-08-25T03:51:40;16.70;99.90
20728;DHT22;10525;50.154;8.198;2022-08-25T03:54:09;16.70;99.90
20728;DHT22;10525;50.154;8.198;2022-08-25T03:56:37;16.60;99.90
20728;DHT22;10525;50.154;8.198;2022-08-25T03:59:03;16.50;99.90
20728;DHT22;10525;50.154;8.198;2022-08-25T04:01:33;16.50;99.90
20728;DHT22;10525;50.154;8.198;2022-08-25T04:04:00;16.50;99.90
20728;DHT22;10525;50.154;8.198;2022-08-25T04:06:26;16.50;99.90
20728;DHT22;10525;50.154;8.198;2022-08-25T04:08:53;16.40;99.90
20728;DHT22;10525;50.154;8.198;2022-08-25T04:11:22;16.40;99.90
20728;DHT22;10525;50.154;8.198;2022-08-25T04:13:50;16.40;99.90
20728;DHT22;10525;50.154;8.198;2022-08-25T04:16:19;16.30;99.90
20728;DHT22;10525;50.154;8.198;2022-08-25T04:18:47;16.30;99.90
20728;DHT22;10525;50.154;8.198;2022-08-25T04:21:15;16.30;99.90
20728;DHT22;10525;50.154;8.198;2022-08-25T04:23:43;16.20;99.90
20728;DHT22;10525;50.154;8.198;2022-08-25T04:26:12;16.20;99.90
20728;DHT22;10525;50.154;8.198;2022-08-25T04:28:41;16.20;99.90
20728;DHT22;10525;50.154;8.198;2022-08-25T04:31:10;16.20;99.90
20728;DHT22;10525;50.154;8.198;2022-08-25T04:33:38;16.10;99.90
20728;DHT22;10525;50.154;8.198;2022-08-25T04:36:07;16.10;99.90
20728;DHT22;10525;50.154;8.198;2022-08-25T04:38:36;16.00;99.90
20728;DHT22;10525;50.154;8.198;2022-08-25T04:41:06;16.00;99.90
20728;DHT22;10525;50.154;8.198;2022-08-25T04:43:34;16.00;99.90
20728;DHT22;10525;50.154;8.198;2022-08-25T04:46:06;15.90;99.90
20728;DHT22;10525;50.154;8.198;2022-08-25T04:48:33;15.90;99.90
20728;DHT22;10525;50.154;8.198;2022-08-25T04:51:03;15.90;99.90
20728;DHT22;10525;50.154;8.198;2022-08-25T04:53:31;16.00;99.90
20728;DHT22;10525;50.154;8.198;2022-08-25T04:55:58;16.00;99.90
20728;DHT22;10525;50.154;8.198;2022-08-25T04:58:25;16.10;99.90
20728;DHT22;10525;50.154;8.198;2022-08-25T05:00:52;16.10;99.90
20728;DHT22;10525;50.154;8.198;2022-08-25T05:03:27;16.10;99.90
20728;DHT22;10525;50.154;8.198;2022-08-25T05:05:55;16.20;99.90
20728;DHT22;10525;50.154;8.198;2022-08-25T05:08:22;16.20;99.90
20728;DHT22;10525;50.154;8.198;2022-08-25T05:10:49;16.30;99.90
20728;DHT22;10525;50.154;8.198;2022-08-25T05:13:18;16.40;99.90
20728;DHT22;10525;50.154;8.198;2022-08-25T05:15:51;16.40;99.90
20728;DHT22;10525;50.154;8.198;2022-08-25T05:18:18;16.50;99.90
20728;DHT22;10525;50.154;8.198;2022-08-25T05:20:47;16.50;99.90
20728;DHT22;10525;50.154;8.198;2022-08-25T05:23:13;16.50;99.90
20728;DHT22;10525;50.154;8.198;2022-08-25T05:25:40;16.50;99.90
20728;DHT22;10525;50.154;8.198;2022-08-25T05:28:09;16.60;99.90
20728;DHT22;10525;50.154;8.198;2022-08-25T05:30:37;16.70;99.90
20728;DHT22;10525;50.154;8.198;2022-08-25T05:33:05;16.80;99.90
20728;DHT22;10525;50.154;8.198;2022-08-25T05:35:31;17.00;99.90
20728;DHT22;10525;50.154;8.198;2022-08-25T05:37:59;17.10;99.90
20728;DHT22;10525;50.154;8.198;2022-08-25T05:40:26;17.20;99.90
20728;DHT22;10525;50.154;8.198;2022-08-25T05:42:53;17.20;99.90
20728;DHT22;10525;50.154;8.198;2022-08-25T05:45:20;17.30;99.90
20728;DHT22;10525;50.154;8.198;2022-08-25T05:47:47;17.40;99.90
20728;DHT22;10525;50.154;8.198;2022-08-25T05:50:14;17.50;99.90
20728;DHT22;10525;50.154;8.198;2022-08-25T05:52:41;17.60;99.90
20728;DHT22;10525;50.154;8.198;2022-08-25T05:55:10;17.70;99.90
20728;DHT22;10525;50.154;8.198;2022-08-25T05:57:37;17.80;99.90
20728;DHT22;10525;50.154;8.198;2022-08-25T06:00:05;17.90;99.90
20728;DHT22;10525;50.154;8.198;2022-08-25T06:02:32;18.00;99.90
20728;DHT22;10525;50.154;8.198;2022-08-25T06:05:10;18.20;99.90
20728;DHT22;10525;50.154;8.198;2022-08-25T06:07:38;18.30;99.90
20728;DHT22;10525;50.154;8.198;2022-08-25T06:10:06;18.40;99.90
20728;DHT22;10525;50.154;8.198;2022-08-25T06:12:38;18.60;99.90
20728;DHT22;10525;50.154;8.198;2022-08-25T06:15:06;18.70;99.90
20728;DHT22;10525;50.154;8.198;2022-08-25T06:17:33;18.90;99.90
20728;DHT22;10525;50.154;8.198;2022-08-25T06:20:06;19.00;99.90
20728;DHT22;10525;50.154;8.198;2022-08-25T06:22:33;19.20;99.90
20728;DHT22;10525;50.154;8.198;2022-08-25T06:25:00;19.40;99.90
20728;DHT22;10525;50.154;8.198;2022-08-25T06:27:27;19.50;99.90
20728;DHT22;10525;50.154;8.198;2022-08-25T06:29:55;19.70;99.90
20728;DHT22;10525;50.154;8.198;2022-08-25T06:32:22;19.80;99.90
20728;DHT22;10525;50.154;8.198;2022-08-25T06:34:48;20.00;99.90
20728;DHT22;10525;50.154;8.198;2022-08-25T06:37:15;20.10;99.90
20728;DHT22;10525;50.154;8.198;2022-08-25T06:39:42;20.40;99.90
20728;DHT22;10525;50.154;8.198;2022-08-25T06:42:09;20.50;99.90
20728;DHT22;10525;50.154;8.198;2022-08-25T06:44:35;20.70;99.90
20728;DHT22;10525;50.154;8.198;2022-08-25T06:47:04;20.90;99.90
20728;DHT22;10525;50.154;8.198;2022-08-25T06:49:30;21.10;99.90
20728;DHT22;10525;50.154;8.198;2022-08-25T06:51:57;21.20;99.90
20728;DHT22;10525;50.154;8.198;2022-08-25T06:54:24;21.40;99.90
20728;DHT22;10525;50.154;8.198;2022-08-25T06:56:50;21.60;99.90
20728;DHT22;10525;50.154;8.198;2022-08-25T06:59:17;21.90;99.90
20728;DHT22;10525;50.154;8.198;2022-08-25T07:01:44;22.00;99.90
20728;DHT22;10525;50.154;8.198;2022-08-25T07:04:12;22.20;99.90
20728;DHT22;10525;50.154;8.198;2022-08-25T07:06:39;22.40;99.90
20728;DHT22;10525;50.154;8.198;2022-08-25T07:09:07;22.60;99.90
20728;DHT22;10525;50.154;8.198;2022-08-25T07:11:35;22.70;99.90
20728;DHT22;10525;50.154;8.198;2022-08-25T07:14:03;22.80;99.90
20728;DHT22;10525;50.154;8.198;2022-08-25T07:16:31;22.90;99.90
20728;DHT22;10525;50.154;8.198;2022-08-25T07:18:59;23.00;99.90
20728;DHT22;10525;50.154;8.198;2022-08-25T07:21:29;23.20;99.90
20728;DHT22;10525;50.154;8.198;2022-08-25T07:23:57;23.20;99.90
20728;DHT22;10525;50.154;8.198;2022-08-25T07:26:27;23.30;99.90
20728;DHT22;10525;50.154;8.198;2022-08-25T07:28:54;23.40;99.90
20728;DHT22;10525;50.154;8.198;2022-08-25T07:31:21;23.40;99.90
20728;DHT22;10525;50.154;8.198;2022-08-25T07:33:47;23.40;99.90
20728;DHT22;10525;50.154;8.198;2022-08-25T07:36:33;23.60;99.90
20728;DHT22;10525;50.154;8.198;2022-08-25T07:39:02;23.60;99.90
20728;DHT22;10525;50.154;8.198;2022-08-25T07:41:31;23.60;99.90
20728;DHT22;10525;50.154;8.198;2022-08-25T07:43:59;23.70;99.90
20728;DHT22;10525;50.154;8.198;2022-08-25T07:46:25;23.70;99.90
20728;DHT22;10525;50.154;8.198;2022-08-25T07:48:52;23.80;99.90
20728;DHT22;10525;50.154;8.198;2022-08-25T07:51:19;23.80;99.90
20728;DHT22;10525;50.154;8.198;2022-08-25T07:53:47;23.90;99.90
20728;DHT22;10525;50.154;8.198;2022-08-25T07:56:15;23.90;99.90
20728;DHT22;10525;50.154;8.198;2022-08-25T07:58:43;23.90;99.90
20728;DHT22;10525;50.154;8.198;2022-08-25T08:01:13;24.00;99.90
20728;DHT22;10525;50.154;8.198;2022-08-25T08:03:40;24.00;99.90
20728;DHT22;10525;50.154;8.198;2022-08-25T08:06:08;24.10;99.90
20728;DHT22;10525;50.154;8.198;2022-08-25T08:08:35;24.10;99.90
20728;DHT22;10525;50.154;8.198;2022-08-25T08:11:04;24.10;99.90
20728;DHT22;10525;50.154;8.198;2022-08-25T08:13:32;24.10;99.90
20728;DHT22;10525;50.154;8.198;2022-08-25T08:15:58;24.20;99.90
20728;DHT22;10525;50.154;8.198;2022-08-25T08:18:25;24.30;99.90
20728;DHT22;10525;50.154;8.198;2022-08-25T08:20:52;24.40;99.90
20728;DHT22;10525;50.154;8.198;2022-08-25T08:23:18;24.50;99.90
20728;DHT22;10525;50.154;8.198;2022-08-25T08:25:51;24.50;99.90
20728;DHT22;10525;50.154;8.198;2022-08-25T08:28:19;24.50;99.90
20728;DHT22;10525;50.154;8.198;2022-08-25T08:30:47;24.50;99.90
20728;DHT22;10525;50.154;8.198;2022-08-25T08:33:14;24.40;99.90
20728;DHT22;10525;50.154;8.198;2022-08-25T08:35:40;24.50;99.90
20728;DHT22;10525;50.154;8.198;2022-08-25T08:38:07;24.50;99.90
20728;DHT22;10525;50.154;8.198;2022-08-25T08:40:44;24.60;99.90
20728;DHT22;10525;50.154;8.198;2022-08-25T08:43:33;24.70;99.90
20728;DHT22;10525;50.154;8.198;2022-08-25T08:46:02;24.80;99.90
20728;DHT22;10525;50.154;8.198;2022-08-25T08:48:42;24.80;99.90
20728;DHT22;10525;50.154;8.198;2022-08-25T08:51:17;24.80;99.90
20728;DHT22;10525;50.154;8.198;2022-08-25T08:53:48;25.00;99.90
20728;DHT22;10525;50.154;8.198;2022-08-25T08:56:20;25.20;99.90
20728;DHT22;10525;50.154;8.198;2022-08-25T08:58:51;25.30;99.90
20728;DHT22;10525;50.154;8.198;2022-08-25T09:01:25;25.40;99.90
20728;DHT22;10525;50.154;8.198;2022-08-25T09:03:59;25.40;99.90
20728;DHT22;10525;50.154;8.198;2022-08-25T09:06:31;25.60;99.90
20728;DHT22;10525;50.154;8.198;2022-08-25T09:09:02;25.50;99.90
20728;DHT22;10525;50.154;8.198;2022-08-25T09:11:50;25.70;99.90
20728;DHT22;10525;50.154;8.198;2022-08-25T09:14:28;25.70;99.90
20728;DHT22;10525;50.154;8.198;2022-08-25T09:17:01;25.60;99.90
20728;DHT22;10525;50.154;8.198;2022-08-25T09:19:54;25.60;99.90
20728;DHT22;10525;50.154;8.198;2022-08-25T09:22:36;25.70;99.90
20728;DHT22;10525;50.154;8.198;2022-08-25T09:25:12;25.80;99.90
20728;DHT22;10525;50.154;8.198;2022-08-25T09:27:46;25.90;99.90
20728;DHT22;10525;50.154;8.198;2022-08-25T09:30:19;26.00;99.90
20728;DHT22;10525;50.154;8.198;2022-08-25T09:32:48;26.10;99.90
20728;DHT22;10525;50.154;8.198;2022-08-25T09:35:19;26.10;99.90
20728;DHT22;10525;50.154;8.198;2022-08-25T09:37:57;26.20;99.90
20728;DHT22;10525;50.154;8.198;2022-08-25T09:40:25;26.40;99.90
20728;DHT22;10525;50.154;8.198;2022-08-25T09:42:54;26.40;99.90
20728;DHT22;10525;50.154;8.198;2022-08-25T09:45:33;26.40;99.90
20728;DHT22;10525;50.154;8.198;2022-08-25T09:48:01;26.50;99.90
20728;DHT22;10525;50.154;8.198;2022-08-25T09:50:31;26.50;99.90
20728;DHT22;10525;50.154;8.198;2022-08-25T09:53:11;26.60;99.90
20728;DHT22;10525;50.154;8.198;2022-08-25T09:55:40;26.50;99.90
20728;DHT22;10525;50.154;8.198;2022-08-25T09:58:18;26.50;99.90
20728;DHT22;10525;50.154;8.198;2022-08-25T10:04:00;26.80;99.90
20728;DHT22;10525;50.154;8.198;2022-08-25T10:06:33;26.90;99.90
20728;DHT22;10525;50.154;8.198;2022-08-25T10:09:02;26.90;99.90
20728;DHT22;10525;50.154;8.198;2022-08-25T10:11:38;26.70;99.90
20728;DHT22;10525;50.154;8.198;2022-08-25T10:14:18;26.60;99.90
20728;DHT22;10525;50.154;8.198;2022-08-25T10:16:48;26.60;99.90
20728;DHT22;10525;50.154;8.198;2022-08-25T10:19:23;26.80;99.90
20728;DHT22;10525;50.154;8.198;2022-08-25T10:22:03;27.00;99.90
20728;DHT22;10525;50.154;8.198;2022-08-25T10:24:30;27.20;99.90
20728;DHT22;10525;50.154;8.198;2022-08-25T10:27:02;27.10;99.90
20728;DHT22;10525;50.154;8.198;2022-08-25T10:29:48;27.10;99.90
20728;DHT22;10525;50.154;8.198;2022-08-25T10:32:24;27.30;99.90
20728;DHT22;10525;50.154;8.198;2022-08-25T10:34:55;27.40;99.90
20728;DHT22;10525;50.154;8.198;2022-08-25T10:37:31;27.50;99.90
20728;DHT22;10525;50.154;8.198;2022-08-25T10:40:09;27.70;99.90
20728;DHT22;10525;50.154;8.198;2022-08-25T10:42:45;27.90;99.90
20728;DHT22;10525;50.154;8.198;2022-08-25T10:45:20;28.10;99.90
20728;DHT22;10525;50.154;8.198;2022-08-25T10:51:08;27.90;99.90
20728;DHT22;10525;50.154;8.198;2022-08-25T10:53:45;27.90;99.90
20728;DHT22;10525;50.154;8.198;2022-08-25T10:56:18;27.90;99.90
20728;DHT22;10525;50.154;8.198;2022-08-25T10:59:04;27.90;99.90
20728;DHT22;10525;50.154;8.198;2022-08-25T11:01:42;28.00;99.90
20728;DHT22;10525;50.154;8.198;2022-08-25T11:04:13;28.30;99.90
20728;DHT22;10525;50.154;8.198;2022-08-25T11:06:47;28.20;99.90
20728;DHT22;10525;50.154;8.198;2022-08-25T11:09:17;28.40;99.90
20728;DHT22;10525;50.154;8.198;2022-08-25T11:11:48;28.60;99.90
20728;DHT22;10525;50.154;8.198;2022-08-25T11:14:20;28.80;99.90
20728;DHT22;10525;50.154;8.198;2022-08-25T11:16:52;28.70;99.90
20728;DHT22;10525;50.154;8.198;2022-08-25T11:19:24;28.60;99.90
20728;DHT22;10525;50.154;8.198;2022-08-25T11:22:00;28.40;99.90
20728;DHT22;10525;50.154;8.198;2022-08-25T11:24:45;28.30;99.90
20728;DHT22;10525;50.154;8.198;2022-08-25T11:27:19;28.10;99.90
20728;DHT22;10525;50.154;8.198;2022-08-25T11:29:53;28.10;99.90
20728;DHT22;10525;50.154;8.198;2022-08-25T11:32:22;28.30;99.90
20728;DHT22;10525;50.154;8.198;2022-08-25T11:34:49;28.60;99.90
20728;DHT22;10525;50.154;8.198;2022-08-25T11:37:23;28.90;99.90
20728;DHT22;10525;50.154;8.198;2022-08-25T11:40:19;28.90;99.90
20728;DHT22;10525;50.154;8.198;2022-08-25T11:42:59;28.60;99.90
20728;DHT22;10525;50.154;8.198;2022-08-25T11:48:38;28.80;99.90
20728;DHT22;10525;50.154;8.198;2022-08-25T11:51:08;28.80;99.90
20728;DHT22;10525;50.154;8.198;2022-08-25T11:53:37;28.60;99.90
20728;DHT22;10525;50.154;8.198;2022-08-25T11:56:06;28.50;99.90
20728;DHT22;10525;50.154;8.198;2022-08-25T11:58:46;28.90;99.90
20728;DHT22;10525;50.154;8.198;2022-08-25T12:04:32;29.40;99.90
20728;DHT22;10525;50.154;8.198;2022-08-25T12:07:27;29.20;99.90
20728;DHT22;10525;50.154;8.198;2022-08-25T12:10:11;29.30;99.90
20728;DHT22;10525;50.154;8.198;2022-08-25T12:12:55;29.20;99.90
20728;DHT22;10525;50.154;8.198;2022-08-25T12:15:24;29.10;99.90
20728;DHT22;10525;50.154;8.198;2022-08-25T12:18:08;28.80;99.90
20728;DHT22;10525;50.154;8.198;2022-08-25T12:21:13;28.90;99.90
20728;DHT22;10525;50.154;8.198;2022-08-25T12:23:43;28.80;99.90
20728;DHT22;10525;50.154;8.198;2022-08-25T12:26:18;28.70;99.90
20728;DHT22;10525;50.154;8.198;2022-08-25T12:28:56;28.80;99.90
20728;DHT22;10525;50.154;8.198;2022-08-25T12:31:39;29.00;99.90
20728;DHT22;10525;50.154;8.198;2022-08-25T12:34:20;28.90;99.90
20728;DHT22;10525;50.154;8.198;2022-08-25T12:36:59;28.80;99.90
20728;DHT22;10525;50.154;8.198;2022-08-25T12:39:33;28.80;99.90
20728;DHT22;10525;50.154;8.198;2022-08-25T12:42:04;28.40;99.90
20728;DHT22;10525;50.154;8.198;2022-08-25T12:44:41;28.40;99.90
20728;DHT22;10525;50.154;8.198;2022-08-25T12:47:26;28.00;99.90
20728;DHT22;10525;50.154;8.198;2022-08-25T12:50:28;28.00;99.90
20728;DHT22;10525;50.154;8.198;2022-08-25T12:53:06;27.90;99.90
20728;DHT22;10525;50.154;8.198;2022-08-25T12:55:35;28.00;99.90
20728;DHT22;10525;50.154;8.198;2022-08-25T12:58:04;28.00;99.90
20728;DHT22;10525;50.154;8.198;2022-08-25T13:00:36;28.20;99.90
20728;DHT22;10525;50.154;8.198;2022-08-25T13:03:25;28.50;99.90
20728;DHT22;10525;50.154;8.198;2022-08-25T13:06:13;28.80;99.90
20728;DHT22;10525;50.154;8.198;2022-08-25T13:09:39;29.00;99.90
20728;DHT22;10525;50.154;8.198;2022-08-25T13:12:15;29.30;99.90
20728;DHT22;10525;50.154;8.198;2022-08-25T13:14:51;29.60;99.90
20728;DHT22;10525;50.154;8.198;2022-08-25T13:17:25;29.50;99.90
20728;DHT22;10525;50.154;8.198;2022-08-25T13:20:11;29.40;99.90
20728;DHT22;10525;50.154;8.198;2022-08-25T13:22:38;29.30;99.90
20728;DHT22;10525;50.154;8.198;2022-08-25T13:25:06;29.00;99.90
20728;DHT22;10525;50.154;8.198;2022-08-25T13:27:34;28.80;99.90
20728;DHT22;10525;50.154;8.198;2022-08-25T13:30:03;28.50;99.90
20728;DHT22;10525;50.154;8.198;2022-08-25T13:32:33;28.50;99.90
20728;DHT22;10525;50.154;8.198;2022-08-25T13:35:11;28.40;99.90
20728;DHT22;10525;50.154;8.198;2022-08-25T13:37:39;28.40;99.90
20728;DHT22;10525;50.154;8.198;2022-08-25T13:40:11;28.50;99.90
20728;DHT22;10525;50.154;8.198;2022-08-25T13:42:42;28.70;99.90
20728;DHT22;10525;50.154;8.198;2022-08-25T13:45:14;28.60;99.90
20728;DHT22;10525;50.154;8.198;2022-08-25T13:47:42;28.50;99.90
20728;DHT22;10525;50.154;8.198;2022-08-25T13:50:23;28.70;99.90
20728;DHT22;10525;50.154;8.198;2022-08-25T13:52:56;28.90;99.90
20728;DHT22;10525;50.154;8.198;2022-08-25T13:55:32;29.10;99.90
20728;DHT22;10525;50.154;8.198;2022-08-25T13:58:00;29.40;99.90
20728;DHT22;10525;50.154;8.198;2022-08-25T14:00:32;29.40;99.90
20728;DHT22;10525;50.154;8.198;2022-08-25T14:03:00;29.60;99.90
20728;DHT22;10525;50.154;8.198;2022-08-25T14:05:35;29.50;99.90
20728;DHT22;10525;50.154;8.198;2022-08-25T14:08:03;29.50;99.90
20728;DHT22;10525;50.154;8.198;2022-08-25T14:10:36;29.60;99.90
20728;DHT22;10525;50.154;8.198;2022-08-25T14:13:11;29.70;99.90
20728;DHT22;10525;50.154;8.198;2022-08-25T14:15:39;29.70;99.90
20728;DHT22;10525;50.154;8.198;2022-08-25T14:18:11;29.60;99.90
20728;DHT22;10525;50.154;8.198;2022-08-25T14:20:44;29.80;99.90
20728;DHT22;10525;50.154;8.198;2022-08-25T14:23:17;29.70;99.90
20728;DHT22;10525;50.154;8.198;2022-08-25T14:25:44;29.50;99.90
20728;DHT22;10525;50.154;8.198;2022-08-25T14:28:13;29.40;99.90
20728;DHT22;10525;50.154;8.198;2022-08-25T14:30:45;29.60;99.90
20728;DHT22;10525;50.154;8.198;2022-08-25T14:33:15;29.50;99.90
20728;DHT22;10525;50.154;8.198;2022-08-25T14:35:47;29.40;99.90
20728;DHT22;10525;50.154;8.198;2022-08-25T14:38:14;29.20;99.90
20728;DHT22;10525;50.154;8.198;2022-08-25T14:40:41;29.30;99.90
20728;DHT22;10525;50.154;8.198;2022-08-25T14:43:09;29.30;99.90
20728;DHT22;10525;50.154;8.198;2022-08-25T14:45:38;29.30;99.90
20728;DHT22;10525;50.154;8.198;2022-08-25T14:48:08;29.50;99.90
20728;DHT22;10525;50.154;8.198;2022-08-25T14:50:36;29.60;99.90
20728;DHT22;10525;50.154;8.198;2022-08-25T14:53:03;29.90;99.90
20728;DHT22;10525;50.154;8.198;2022-08-25T14:55:30;29.90;99.90
20728;DHT22;10525;50.154;8.198;2022-08-25T14:57:58;30.10;99.90
20728;DHT22;10525;50.154;8.198;2022-08-25T15:00:25;30.20;99.90
20728;DHT22;10525;50.154;8.198;2022-08-25T15:02:52;30.00;99.90
20728;DHT22;10525;50.154;8.198;2022-08-25T15:05:23;30.20;99.90
20728;DHT22;10525;50.154;8.198;2022-08-25T15:07:52;30.10;99.90
20728;DHT22;10525;50.154;8.198;2022-08-25T15:10:49;30.00;99.90
20728;DHT22;10525;50.154;8.198;2022-08-25T15:13:15;29.80;99.90
20728;DHT22;10525;50.154;8.198;2022-08-25T15:15:43;29.90;99.90
20728;DHT22;10525;50.154;8.198;2022-08-25T15:18:18;30.10;99.90
20728;DHT22;10525;50.154;8.198;2022-08-25T15:20:46;29.90;99.90
20728;DHT22;10525;50.154;8.198;2022-08-25T15:23:13;29.80;99.90
20728;DHT22;10525;50.154;8.198;2022-08-25T15:25:45;29.60;99.90
20728;DHT22;10525;50.154;8.198;2022-08-25T15:28:12;29.50;99.90
20728;DHT22;10525;50.154;8.198;2022-08-25T15:30:39;29.00;99.90
20728;DHT22;10525;50.154;8.198;2022-08-25T15:33:06;28.80;99.90
20728;DHT22;10525;50.154;8.198;2022-08-25T15:35:32;28.70;99.90
20728;DHT22;10525;50.154;8.198;2022-08-25T15:38:00;28.60;99.90
20728;DHT22;10525;50.154;8.198;2022-08-25T15:40:27;28.40;99.90
20728;DHT22;10525;50.154;8.198;2022-08-25T15:42:54;28.30;99.90
20728;DHT22;10525;50.154;8.198;2022-08-25T15:45:21;28.30;99.90
20728;DHT22;10525;50.154;8.198;2022-08-25T15:47:48;28.30;99.90
20728;DHT22;10525;50.154;8.198;2022-08-25T15:50:16;28.40;99.90
20728;DHT22;10525;50.154;8.198;2022-08-25T15:52:44;28.50;99.90
20728;DHT22;10525;50.154;8.198;2022-08-25T15:55:13;28.70;99.90
20728;DHT22;10525;50.154;8.198;2022-08-25T15:57:40;28.80;99.90
20728;DHT22;10525;50.154;8.198;2022-08-25T16:00:09;28.80;99.90
20728;DHT22;10525;50.154;8.198;2022-08-25T16:02:36;28.70;99.90
20728;DHT22;10525;50.154;8.198;2022-08-25T16:05:04;28.80;99.90